Time;durP1;ratioP1;P1;durP2;ratioP2;P2;SDS_P1;SDS_P2;PMS_P1;PMS_P2;Temp;Humidity;BMP_temperature;BMP_pressure;BME280_temperature;BME280_humidity;BME280_pressure;Samples;Min_cycle;Max_cycle;Signal;HPM_P1;HPM_P2
2021/03/21 00:02:10;;;;;;;13.95;7.80;;;6.70;94.60;;;;;;5076399;28;20039;-71
2021/03/21 00:04:35;;;;;;;16.50;7.55;;;6.60;94.60;;;;;;5076127;28;20101;-71
2021/03/21 00:07:01;;;;;;;15.95;7.80;;;6.60;94.70;;;;;;5076157;28;20070;-71
2021/03/21 00:09:27;;;;;;;17.60;9.23;;;6.60;94.60;;;;;;5076072;28;20051;-71
2021/03/21 00:11:52;;;;;;;15.13;9.07;;;6.70;94.60;;;;;;5076118;28;20036;-71
2021/03/21 00:14:18;;;;;;;13.20;7.72;;;6.60;94.60;;;;;;5076336;28;20595;-72
2021/03/21 00:16:43;;;;;;;17.17;10.25;;;6.60;94.60;;;;;;5076012;28;20063;-71
2021/03/21 00:19:10;;;;;;;19.92;9.18;;;6.60;94.60;;;;;;5075715;28;20045;-71
2021/03/21 00:21:36;;;;;;;24.70;9.73;;;6.60;94.70;;;;;;5076069;28;20538;-71
2021/03/21 00:24:04;;;;;;;17.75;9.30;;;6.70;94.70;;;;;;5058374;28;20044;-71
2021/03/21 00:26:30;;;;;;;23.63;10.65;;;6.70;94.60;;;;;;5075671;28;20043;-71
2021/03/21 00:28:56;;;;;;;20.80;9.73;;;6.70;94.50;;;;;;5075959;28;20037;-71
2021/03/21 00:31:22;;;;;;;24.90;10.05;;;6.70;94.50;;;;;;5075811;28;20036;-71
2021/03/21 00:33:48;;;;;;;19.75;9.65;;;6.70;94.40;;;;;;5075706;28;20045;-71
2021/03/21 00:36:15;;;;;;;21.75;9.75;;;6.70;94.40;;;;;;5075448;28;20079;-71
2021/03/21 00:38:47;;;;;;;24.50;10.70;;;6.70;94.50;;;;;;5076100;28;20048;-71
2021/03/21 00:41:15;;;;;;;19.08;9.43;;;6.70;94.50;;;;;;5057788;28;20044;-71
2021/03/21 00:43:41;;;;;;;19.15;9.02;;;6.70;94.50;;;;;;5075858;28;20039;-71
2021/03/21 00:46:08;;;;;;;22.83;9.45;;;6.70;94.60;;;;;;5075407;28;20049;-71
2021/03/21 00:48:40;;;;;;;14.82;8.93;;;6.70;94.50;;;;;;5075932;28;20043;-71
2021/03/21 00:51:07;;;;;;;21.40;10.13;;;6.70;94.50;;;;;;5075639;28;20090;-71
2021/03/21 00:53:33;;;;;;;19.42;9.25;;;6.70;94.50;;;;;;5075757;28;20380;-71
2021/03/21 00:55:59;;;;;;;20.85;9.80;;;6.70;94.50;;;;;;5074792;28;20043;-71
2021/03/21 00:58:25;;;;;;;24.73;10.90;;;6.70;94.50;;;;;;5075076;28;20045;-71
2021/03/21 01:00:57;;;;;;;27.25;10.60;;;6.70;94.40;;;;;;5075088;28;20044;-71
2021/03/21 01:03:23;;;;;;;27.42;12.38;;;6.70;94.50;;;;;;5075011;28;20115;-71
2021/03/21 01:05:54;;;;;;;25.75;12.20;;;6.70;94.50;;;;;;5074617;28;20098;-71
2021/03/21 01:08:31;;;;;;;25.15;13.88;;;6.80;94.40;;;;;;5075485;28;20500;-71
2021/03/21 01:11:08;;;;;;;36.13;14.05;;;6.80;94.30;;;;;;5075323;28;20094;-71
2021/03/21 01:13:35;;;;;;;24.95;13.65;;;6.70;94.40;;;;;;5075482;28;20032;-71
2021/03/21 01:16:03;;;;;;;32.75;15.35;;;6.80;94.40;;;;;;5074527;28;20503;-71
2021/03/21 01:18:32;;;;;;;30.38;14.05;;;6.80;94.50;;;;;;5075022;28;20464;-71
2021/03/21 01:20:59;;;;;;;24.10;13.60;;;6.70;94.60;;;;;;5074773;28;20036;-71
2021/03/21 01:23:25;;;;;;;37.00;12.80;;;6.70;94.60;;;;;;5075194;28;20170;-71
2021/03/21 01:25:51;;;;;;;31.10;13.93;;;6.70;94.80;;;;;;5074750;28;20484;-71
2021/03/21 01:28:19;;;;;;;31.85;13.55;;;6.70;94.80;;;;;;5074632;28;20141;-71
2021/03/21 01:30:45;;;;;;;28.60;13.35;;;6.70;94.90;;;;;;5056839;28;20036;-71
2021/03/21 01:33:11;;;;;;;25.20;11.63;;;6.60;95.00;;;;;;5057100;28;20045;-71
2021/03/21 01:35:37;;;;;;;29.15;10.63;;;6.70;95.20;;;;;;5074337;28;20102;-71
2021/03/21 01:38:02;;;;;;;21.90;10.07;;;6.70;95.10;;;;;;5074636;28;20032;-71
2021/03/21 01:40:28;;;;;;;19.00;9.13;;;6.70;95.10;;;;;;5074515;28;20036;-71
2021/03/21 01:42:54;;;;;;;17.23;8.30;;;6.70;94.90;;;;;;5074413;28;20040;-71
2021/03/21 01:45:37;;;;;;;17.75;7.55;;;6.80;94.50;;;;;;5074081;28;20040;-71
2021/03/21 01:48:27;;;;;;;12.95;6.28;;;6.80;94.60;;;;;;5074293;28;20055;-71
2021/03/21 01:51:03;;;;;;;13.88;4.63;;;6.70;94.20;;;;;;5073681;28;20048;-71
2021/03/21 01:53:33;;;;;;;12.30;4.15;;;6.80;93.70;;;;;;5074001;28;20036;-71
2021/03/21 01:55:59;;;;;;;12.55;5.30;;;6.80;93.90;;;;;;5073890;28;20037;-71
2021/03/21 01:58:28;;;;;;;12.27;5.25;;;6.70;94.10;;;;;;5074527;28;20079;-71
2021/03/21 02:00:58;;;;;;;12.63;5.78;;;6.80;94.00;;;;;;5074637;28;20379;-72
2021/03/21 02:03:24;;;;;;;19.42;6.65;;;6.70;94.10;;;;;;5074527;28;20074;-71
2021/03/21 02:06:12;;;;;;;15.00;6.75;;;6.70;94.20;;;;;;5073803;28;20036;-71
2021/03/21 02:08:49;;;;;;;18.10;7.10;;;6.60;94.20;;;;;;5074270;28;20047;-71
2021/03/21 02:11:19;;;;;;;17.52;6.80;;;6.60;94.20;;;;;;5073976;28;20032;-71
2021/03/21 02:13:59;;;;;;;13.18;5.68;;;6.70;94.10;;;;;;5073803;28;20043;-71
2021/03/21 02:16:32;;;;;;;15.35;6.03;;;6.70;94.00;;;;;;5055877;28;20563;-71
2021/03/21 02:19:16;;;;;;;15.82;6.65;;;6.70;93.90;;;;;;5073431;28;20045;-71
2021/03/21 02:21:48;;;;;;;;;;;6.60;93.90;;;;;;5074083;28;20106;-71
2021/03/21 02:24:33;;;;;;;16.98;6.20;;;6.60;93.80;;;;;;5073577;28;19916;-71
2021/03/21 02:27:37;;;;;;;25.00;6.68;;;6.70;93.80;;;;;;5073532;28;20407;-71
2021/03/21 02:30:17;;;;;;;13.13;6.10;;;6.60;93.90;;;;;;5035223;28;20048;-71
2021/03/21 02:33:06;;;;;;;16.75;6.45;;;6.70;93.50;;;;;;5073636;28;20043;-71
2021/03/21 02:35:48;;;;;;;16.92;6.55;;;6.70;93.60;;;;;;5073301;28;20036;-71
2021/03/21 02:38:13;;;;;;;14.57;5.68;;;6.60;93.80;;;;;;5073417;28;20041;-72
2021/03/21 02:40:49;;;;;;;20.10;6.45;;;6.60;93.80;;;;;;5073132;28;20028;-71
2021/03/21 02:43:45;;;;;;;14.32;5.72;;;6.60;93.70;;;;;;5073400;28;20086;-72
2021/03/21 02:46:17;;;;;;;15.80;5.60;;;6.70;93.80;;;;;;5055138;28;20544;-71
2021/03/21 02:48:49;;;;;;;20.50;6.03;;;6.60;93.70;;;;;;5073837;28;20047;-71
2021/03/21 02:51:27;;;;;;;18.70;5.80;;;6.60;93.60;;;;;;5073768;28;20043;-71
2021/03/21 02:54:10;;;;;;;18.10;6.20;;;6.60;93.70;;;;;;5073485;28;20542;-71
2021/03/21 02:56:39;;;;;;;19.75;5.32;;;6.60;93.80;;;;;;5055013;28;20481;-71
2021/03/21 02:59:10;;;;;;;20.55;4.90;;;6.70;93.70;;;;;;5073227;28;20033;-71
2021/03/21 03:01:53;;;;;;;21.67;6.68;;;6.60;93.70;;;;;;5055148;28;20132;-71
2021/03/21 03:04:35;;;;;;;20.25;5.40;;;6.60;94.00;;;;;;5073248;28;20039;-71
2021/03/21 03:07:20;;;;;;;13.23;5.65;;;6.60;94.10;;;;;;5073432;28;20040;-71
2021/03/21 03:09:52;;;;;;;19.45;5.03;;;6.70;94.00;;;;;;5073322;28;20063;-71
2021/03/21 03:12:42;;;;;;;14.13;5.55;;;6.70;94.00;;;;;;5055355;28;20041;-71
2021/03/21 03:15:15;;;;;;;19.88;4.50;;;6.70;93.80;;;;;;5073123;28;20434;-71
2021/03/21 03:17:43;;;;;;;15.00;4.73;;;6.60;93.80;;;;;;5072768;28;20044;-71
2021/03/21 03:20:30;;;;;;;15.18;4.22;;;6.70;93.80;;;;;;5072740;28;20320;-71
2021/03/21 03:23:15;;;;;;;17.58;4.18;;;6.60;93.90;;;;;;5072933;28;20040;-71
2021/03/21 03:26:06;;;;;;;11.55;3.75;;;6.60;94.00;;;;;;5072828;28;20032;-71
2021/03/21 03:28:52;;;;;;;14.20;3.88;;;6.60;94.10;;;;;;5072948;28;20037;-72
2021/03/21 03:31:42;;;;;;;15.85;4.30;;;6.60;94.00;;;;;;5073113;28;20461;-72
2021/03/21 03:34:09;;;;;;;19.75;4.78;;;6.60;94.10;;;;;;5072946;28;20046;-71
2021/03/21 03:36:35;;;;;;;14.65;4.15;;;6.60;94.10;;;;;;5072499;28;20459;-71
2021/03/21 03:39:01;;;;;;;17.95;3.95;;;6.60;94.30;;;;;;5072642;28;20503;-71
2021/03/21 03:41:51;;;;;;;20.77;4.40;;;6.50;94.30;;;;;;5072827;28;20712;-71
2021/03/21 03:44:45;;;;;;;19.33;3.55;;;6.50;94.50;;;;;;5072840;28;20127;-72
2021/03/21 03:47:19;;;;;;;21.98;5.18;;;6.50;94.20;;;;;;5072867;28;20404;-71
2021/03/21 03:49:59;;;;;;;24.17;4.25;;;6.60;94.20;;;;;;5073158;28;20460;-71
2021/03/21 03:53:02;;;;;;;33.92;5.57;;;6.50;94.20;;;;;;5054944;28;20480;-71
2021/03/21 03:55:31;;;;;;;20.80;4.38;;;6.60;94.10;;;;;;5072343;28;20400;-71
2021/03/21 03:58:14;;;;;;;25.23;4.85;;;6.50;94.30;;;;;;5072416;28;20040;-71
2021/03/21 04:00:59;;;;;;;18.73;4.40;;;6.60;94.40;;;;;;5072781;28;20028;-71
2021/03/21 04:03:46;;;;;;;18.58;4.13;;;6.60;93.70;;;;;;5073200;28;20460;-71
2021/03/21 04:06:19;;;;;;;26.40;5.05;;;6.60;93.40;;;;;;5072250;28;20060;-71
2021/03/21 04:09:06;;;;;;;22.42;4.97;;;6.60;93.40;;;;;;5072504;28;20400;-71
2021/03/21 04:11:49;;;;;;;22.50;3.47;;;6.60;93.40;;;;;;5072453;28;20132;-72
2021/03/21 04:14:21;;;;;;;39.47;4.80;;;6.60;93.30;;;;;;5072635;28;20036;-71
2021/03/21 04:17:06;;;;;;;20.25;4.25;;;6.60;92.60;;;;;;5075211;28;20040;-72
2021/03/21 04:19:37;;;;;;;34.47;4.13;;;6.60;92.20;;;;;;5058223;28;20040;-72
2021/03/21 04:22:16;;;;;;;19.67;3.15;;;6.60;92.20;;;;;;5075962;28;20048;-72
2021/03/21 04:25:00;;;;;;;18.77;4.07;;;6.50;92.40;;;;;;5075658;28;20032;-72
2021/03/21 04:27:31;;;;;;;25.98;4.10;;;6.50;92.40;;;;;;5076018;28;20036;-72
2021/03/21 04:30:02;;;;;;;18.50;3.80;;;6.50;92.20;;;;;;5076067;28;20082;-72
2021/03/21 04:32:34;;;;;;;11.38;2.80;;;6.50;92.00;;;;;;5075688;28;20435;-72
2021/03/21 04:35:04;;;;;;;23.33;3.30;;;6.60;91.70;;;;;;5075481;28;20468;-72
2021/03/21 04:37:31;;;;;;;18.63;3.75;;;6.60;91.40;;;;;;5075458;28;20037;-72
2021/03/21 04:39:58;;;;;;;20.67;3.33;;;6.50;91.20;;;;;;5075532;28;20044;-72
2021/03/21 04:42:45;;;;;;;17.80;3.13;;;6.50;91.30;;;;;;5075485;28;20032;-72
2021/03/21 04:45:55;;;;;;;14.18;4.20;;;6.50;90.60;;;;;;5075367;28;20115;-72
2021/03/21 04:48:24;;;;;;;11.32;2.25;;;6.50;90.30;;;;;;5063642;28;20060;-72
2021/03/21 04:50:59;;;;;;;15.80;2.50;;;6.50;90.30;;;;;;5075740;28;20048;-72
2021/03/21 04:53:28;;;;;;;15.18;2.67;;;6.60;90.10;;;;;;5075767;28;20040;-72
2021/03/21 04:56:01;;;;;;;13.60;2.90;;;6.60;90.10;;;;;;5074888;28;20483;-72
2021/03/21 04:58:50;;;;;;;16.08;2.60;;;6.60;90.00;;;;;;5075662;28;20052;-72
2021/03/21 05:01:33;;;;;;;10.60;2.58;;;6.50;89.60;;;;;;5075718;28;20037;-72
2021/03/21 05:04:05;;;;;;;18.20;4.73;;;6.60;89.40;;;;;;5075343;28;20037;-72
2021/03/21 05:06:58;;;;;;;19.38;3.15;;;6.50;89.10;;;;;;5075160;28;20045;-72
2021/03/21 05:09:35;;;;;;;12.27;2.47;;;6.50;88.30;;;;;;5075084;28;20040;-72
2021/03/21 05:12:12;;;;;;;17.23;3.78;;;6.60;88.10;;;;;;5075210;28;20063;-72
2021/03/21 05:14:58;;;;;;;17.90;3.72;;;6.60;87.70;;;;;;5074633;28;20075;-72
2021/03/21 05:17:41;;;;;;;11.68;2.38;;;6.50;86.80;;;;;;5074233;28;20056;-72
2021/03/21 05:20:15;;;;;;;15.82;2.80;;;6.50;86.90;;;;;;5074855;28;20388;-72
2021/03/21 05:22:47;;;;;;;19.13;3.47;;;6.50;87.10;;;;;;5075283;28;20051;-72
2021/03/21 05:25:21;;;;;;;16.27;3.00;;;6.50;85.90;;;;;;5074870;28;20036;-72
2021/03/21 05:28:02;;;;;;;22.58;3.80;;;6.50;86.40;;;;;;5074812;28;20033;-72
2021/03/21 05:30:31;;;;;;;21.80;4.25;;;6.50;85.60;;;;;;5074900;28;20048;-72
2021/03/21 05:32:58;;;;;;;26.77;3.78;;;6.50;85.90;;;;;;5074789;28;20037;-72
2021/03/21 05:35:27;;;;;;;25.65;3.28;;;6.50;85.20;;;;;;5074468;28;20400;-72
2021/03/21 05:38:15;;;;;;;17.10;3.15;;;6.50;85.80;;;;;;5074408;28;20048;-72
2021/03/21 05:41:26;;;;;;;18.05;3.53;;;6.40;85.40;;;;;;5074718;28;20392;-72
2021/03/21 05:44:09;;;;;;;18.58;4.85;;;6.40;85.90;;;;;;5074588;28;20055;-72
2021/03/21 05:47:21;;;;;;;18.97;4.87;;;6.40;85.80;;;;;;5074426;28;20037;-72
2021/03/21 05:50:34;;;;;;;22.02;4.43;;;6.50;85.30;;;;;;5074126;28;20044;-72
2021/03/21 05:53:30;;;;;;;21.73;5.75;;;6.50;85.10;;;;;;5074154;28;20494;-72
2021/03/21 05:56:13;;;;;;;28.10;4.72;;;6.30;84.70;;;;;;5073775;28;20068;-72
2021/03/21 05:59:04;;;;;;;35.20;6.18;;;6.30;83.80;;;;;;5073957;28;20086;-72
2021/03/21 06:02:01;;;;;;;23.00;5.07;;;6.30;84.00;;;;;;5074155;28;20043;-72
2021/03/21 06:04:45;;;;;;;22.92;5.60;;;6.40;84.80;;;;;;5073752;28;20029;-72
2021/03/21 06:07:26;;;;;;;21.05;5.20;;;6.30;85.20;;;;;;5074199;28;20098;-72
2021/03/21 06:10:20;;;;;;;33.72;5.63;;;6.30;84.90;;;;;;5073816;28;20067;-72
2021/03/21 06:13:23;;;;;;;23.15;6.45;;;6.20;84.00;;;;;;5074112;28;20042;-72
2021/03/21 06:16:26;;;;;;;23.87;5.80;;;6.30;84.40;;;;;;5073746;28;20060;-72
2021/03/21 06:19:03;;;;;;;31.13;5.90;;;6.20;84.80;;;;;;5073606;28;20488;-72
2021/03/21 06:21:53;;;;;;;29.63;6.97;;;6.20;84.50;;;;;;5076914;28;20044;-72
2021/03/21 06:24:54;;;;;;;26.75;6.07;;;6.10;84.30;;;;;;5076395;28;20039;-72
2021/03/21 06:28:05;;;;;;;39.65;7.07;;;6.10;84.10;;;;;;5076769;28;20047;-72
2021/03/21 06:30:54;;;;;;;29.23;6.15;;;6.10;84.30;;;;;;5076665;28;20033;-72
2021/03/21 06:33:45;;;;;;;29.65;5.95;;;6.10;82.70;;;;;;5077443;28;20086;-72
2021/03/21 06:36:47;;;;;;;28.13;6.07;;;6.10;82.10;;;;;;5076436;28;20036;-72
2021/03/21 06:39:42;;;;;;;29.73;5.80;;;6.10;82.30;;;;;;5073862;28;20036;-72
2021/03/21 06:42:19;;;;;;;26.75;5.85;;;6.10;83.00;;;;;;5073777;28;20037;-72
2021/03/21 06:45:22;;;;;;;32.05;7.00;;;6.10;83.70;;;;;;5073137;28;20439;-72
2021/03/21 06:48:21;;;;;;;35.15;6.30;;;6.10;84.60;;;;;;5073483;28;20076;-72
2021/03/21 06:51:06;;;;;;;36.60;5.88;;;6.20;85.40;;;;;;5073150;28;20040;-72
2021/03/21 06:53:54;;;;;;;33.20;7.80;;;6.20;84.30;;;;;;5073290;28;20446;-72
2021/03/21 06:56:32;;;;;;;39.38;7.35;;;6.20;83.90;;;;;;5072976;28;20408;-72
2021/03/21 06:59:36;;;;;;;37.38;5.88;;;6.30;83.70;;;;;;5073838;28;20115;-72
2021/03/21 07:02:23;;;;;;;30.67;6.32;;;6.20;82.30;;;;;;5073453;28;20068;-72
2021/03/21 07:05:16;;;;;;;36.17;8.32;;;6.30;82.90;;;;;;5055141;28;20035;-71
2021/03/21 07:08:24;;;;;;;30.35;6.00;;;6.30;82.40;;;;;;5055572;28;20037;-71
2021/03/21 07:11:38;;;;;;;32.05;6.95;;;6.30;82.40;;;;;;5072786;28;20049;-71
2021/03/21 07:14:36;;;;;;;31.50;6.28;;;6.30;82.20;;;;;;4997471;28;20518;-72
2021/03/21 07:17:33;;;;;;;32.72;6.03;;;6.40;80.90;;;;;;5072921;28;20036;-71
2021/03/21 07:20:37;;;;;;;32.15;7.18;;;6.40;81.50;;;;;;5073287;28;20044;-71
2021/03/21 07:23:22;;;;;;;30.50;6.78;;;6.50;81.20;;;;;;5072982;28;20041;-71
2021/03/21 07:26:41;;;;;;;35.88;7.25;;;6.50;80.20;;;;;;5072592;28;20400;-71
2021/03/21 07:29:27;;;;;;;33.97;6.95;;;6.50;80.50;;;;;;5034975;28;20129;-71
2021/03/21 07:32:14;;;;;;;34.70;7.40;;;6.40;79.80;;;;;;5073218;28;20048;-71
2021/03/21 07:34:58;;;;;;;32.55;6.10;;;6.50;80.50;;;;;;5072699;28;20070;-71
2021/03/21 07:37:27;;;;;;;35.03;7.20;;;6.50;80.40;;;;;;5072680;28;20039;-71
2021/03/21 07:40:25;;;;;;;37.17;6.90;;;6.50;81.00;;;;;;5072947;28;20177;-71
2021/03/21 07:43:16;;;;;;;35.83;6.75;;;6.50;80.90;;;;;;5072721;28;20045;-71
2021/03/21 07:45:51;;;;;;;31.95;6.40;;;6.50;81.20;;;;;;5072639;28;20479;-71
2021/03/21 07:48:31;;;;;;;41.60;8.38;;;6.60;81.40;;;;;;5072709;28;20453;-71
2021/03/21 07:51:49;;;;;;;30.33;6.75;;;6.60;80.90;;;;;;5074835;28;20041;-71
2021/03/21 07:54:34;;;;;;;28.58;6.90;;;6.70;80.20;;;;;;5021558;28;20499;-71
2021/03/21 07:57:21;;;;;;;43.67;7.43;;;6.80;80.00;;;;;;5076924;28;20089;-71
2021/03/21 07:59:49;;;;;;;42.88;9.68;;;6.80;80.20;;;;;;5076379;28;20041;-70
2021/03/21 08:02:22;;;;;;;34.20;8.27;;;6.90;79.70;;;;;;5076627;28;20103;-71
2021/03/21 08:04:49;;;;;;;40.17;7.18;;;6.90;79.40;;;;;;5076110;28;20036;-71
2021/03/21 08:07:21;;;;;;;42.85;7.35;;;6.80;79.20;;;;;;5076647;28;20609;-72
2021/03/21 08:09:48;;;;;;;35.70;7.65;;;6.80;79.70;;;;;;5058826;28;20048;-71
2021/03/21 08:12:20;;;;;;;35.63;6.53;;;6.90;80.40;;;;;;5076173;28;20039;-71
2021/03/21 08:14:53;;;;;;;32.28;6.88;;;6.90;80.00;;;;;;5075905;28;20044;-71
2021/03/21 08:17:34;;;;;;;36.85;9.45;;;7.00;79.70;;;;;;5076162;28;20094;-71
2021/03/21 08:20:12;;;;;;;31.67;6.50;;;7.00;80.00;;;;;;5076271;28;20086;-71
2021/03/21 08:22:38;;;;;;;37.40;7.38;;;7.20;79.80;;;;;;5076257;28;20071;-70
2021/03/21 08:25:27;;;;;;;27.75;6.85;;;7.10;78.90;;;;;;5075686;28;20036;-71
2021/03/21 08:27:54;;;;;;;34.33;8.32;;;7.20;79.10;;;;;;5076062;28;20043;-71
2021/03/21 08:30:23;;;;;;;27.63;7.38;;;7.20;78.50;;;;;;5075967;28;20040;-71
2021/03/21 08:33:10;;;;;;;33.65;7.15;;;7.10;77.50;;;;;;5075765;28;20041;-71
2021/03/21 08:35:36;;;;;;;26.75;6.28;;;7.20;77.60;;;;;;5075838;28;20045;-70
2021/03/21 08:38:19;;;;;;;25.30;6.38;;;7.10;77.30;;;;;;5058415;28;20055;-71
2021/03/21 08:40:45;;;;;;;28.17;6.85;;;7.10;77.90;;;;;;5075914;28;20040;-71
2021/03/21 08:43:23;;;;;;;34.97;7.97;;;7.10;77.50;;;;;;5075761;28;20066;-71
2021/03/21 08:46:07;;;;;;;37.05;7.82;;;7.10;77.20;;;;;;5075198;28;20033;-71
2021/03/21 08:48:40;;;;;;;39.65;7.38;;;7.00;77.10;;;;;;5075584;28;20408;-71
2021/03/21 08:51:12;;;;;;;32.58;6.43;;;7.10;77.20;;;;;;5075690;28;20090;-71
2021/03/21 08:53:52;;;;;;;32.97;7.55;;;7.10;77.40;;;;;;5075884;28;20036;-71
2021/03/21 08:56:23;;;;;;;39.95;6.63;;;7.10;76.90;;;;;;5057625;28;20067;-71
2021/03/21 08:58:52;;;;;;;35.33;7.78;;;7.10;77.30;;;;;;5074633;28;20049;-71
2021/03/21 09:01:22;;;;;;;31.85;6.97;;;7.10;76.30;;;;;;5057226;28;20076;-71
2021/03/21 09:03:50;;;;;;;33.45;7.50;;;7.00;76.10;;;;;;5075356;28;20036;-71
2021/03/21 09:06:34;;;;;;;40.05;7.15;;;7.10;76.40;;;;;;5057214;28;20048;-71
2021/03/21 09:09:38;;;;;;;34.67;6.60;;;7.10;74.50;;;;;;5075387;28;20090;-71
2021/03/21 09:12:22;;;;;;;35.20;7.15;;;7.20;74.70;;;;;;5075236;28;20037;-71
2021/03/21 09:14:48;;;;;;;39.15;7.47;;;7.30;74.70;;;;;;5075001;28;20036;-72
2021/03/21 09:17:25;;;;;;;40.03;7.50;;;7.20;73.80;;;;;;5074983;28;20043;-72
2021/03/21 09:20:02;;;;;;;26.63;6.03;;;7.30;74.40;;;;;;5074788;28;20032;-71
2021/03/21 09:22:40;;;;;;;44.45;8.27;;;7.30;74.80;;;;;;5075000;28;20094;-71
2021/03/21 09:25:15;;;;;;;39.83;9.90;;;7.30;75.60;;;;;;5074927;28;20040;-71
2021/03/21 09:27:43;;;;;;;34.97;7.00;;;7.30;75.30;;;;;;5074681;28;20043;-71
2021/03/21 09:30:20;;;;;;;35.92;7.75;;;7.20;75.80;;;;;;5075161;28;20055;-72
2021/03/21 09:32:51;;;;;;;32.55;7.68;;;7.30;76.60;;;;;;5075400;28;20040;-72
2021/03/21 09:35:30;;;;;;;26.88;7.28;;;7.40;76.10;;;;;;5074404;28;20037;-71
2021/03/21 09:38:01;;;;;;;29.75;6.13;;;7.30;74.80;;;;;;5074724;28;20380;-71
2021/03/21 09:40:34;;;;;;;34.35;7.57;;;7.30;75.30;;;;;;5075039;28;20116;-71
2021/03/21 09:43:01;;;;;;;39.13;7.18;;;7.40;75.10;;;;;;5074432;28;20068;-71
2021/03/21 09:45:27;;;;;;;33.67;6.97;;;7.30;74.30;;;;;;5074256;28;20071;-71
2021/03/21 09:48:04;;;;;;;29.35;7.88;;;7.50;73.50;;;;;;5074846;28;20473;-71
2021/03/21 09:50:51;;;;;;;30.02;6.32;;;7.50;73.40;;;;;;5074670;28;20526;-71
2021/03/21 09:53:46;;;;;;;37.53;7.18;;;7.40;72.10;;;;;;5074643;28;20033;-71
2021/03/21 09:56:32;;;;;;;39.00;8.38;;;7.60;72.00;;;;;;5062722;28;20052;-72
2021/03/21 09:59:04;;;;;;;29.45;6.30;;;7.60;71.60;;;;;;5073666;28;20052;-71
2021/03/21 10:01:54;;;;;;;32.85;6.65;;;7.50;72.20;;;;;;5074175;28;20037;-72
2021/03/21 10:04:33;;;;;;;35.40;7.30;;;7.60;73.70;;;;;;5074306;28;20496;-71
2021/03/21 10:07:05;;;;;;;30.15;7.68;;;7.60;72.80;;;;;;5073419;28;20060;-70
2021/03/21 10:09:34;;;;;;;30.42;6.65;;;7.60;71.80;;;;;;5060508;28;20048;-71
2021/03/21 10:12:09;;;;;;;34.28;7.22;;;7.60;72.20;;;;;;5053670;28;20064;-71
2021/03/21 10:14:35;;;;;;;37.22;7.13;;;7.60;72.50;;;;;;5053013;28;20111;-72
2021/03/21 10:17:20;;;;;;;30.15;6.90;;;7.60;72.80;;;;;;5054550;28;20452;-71
2021/03/21 10:19:51;;;;;;;36.47;8.93;;;7.40;72.20;;;;;;5036204;28;20041;-71
2021/03/21 10:22:16;;;;;;;29.23;6.32;;;7.40;72.40;;;;;;5036543;28;20045;-71
2021/03/21 10:24:43;;;;;;;36.83;6.45;;;7.50;73.30;;;;;;5053992;28;20040;-72
2021/03/21 10:27:14;;;;;;;33.17;7.00;;;7.50;73.00;;;;;;5053830;28;20037;-71
2021/03/21 10:29:41;;;;;;;35.35;6.97;;;7.50;71.80;;;;;;5053931;28;20099;-71
2021/03/21 10:32:26;;;;;;;37.88;8.10;;;7.40;72.10;;;;;;5054108;28;20068;-71
2021/03/21 10:34:52;;;;;;;27.08;6.70;;;7.40;73.30;;;;;;5053648;28;20037;-71
2021/03/21 10:37:40;;;;;;;36.22;7.43;;;7.50;72.70;;;;;;5053730;28;20477;-71
2021/03/21 10:40:12;;;;;;;24.67;6.53;;;7.40;71.30;;;;;;5053485;28;20041;-70
2021/03/21 10:42:38;;;;;;;35.22;7.57;;;7.40;71.70;;;;;;5053863;28;20043;-71
2021/03/21 10:45:07;;;;;;;39.22;8.10;;;7.40;72.80;;;;;;5053498;28;20112;-71
2021/03/21 10:47:33;;;;;;;48.17;7.65;;;7.30;73.20;;;;;;5053807;28;20037;-71
2021/03/21 10:50:01;;;;;;;37.85;8.45;;;7.40;73.50;;;;;;5054010;28;20090;-71
2021/03/21 10:52:31;;;;;;;33.92;6.22;;;7.50;72.80;;;;;;5053677;28;20501;-72
2021/03/21 10:55:12;;;;;;;33.22;5.80;;;7.40;70.80;;;;;;5053484;28;20087;-71
2021/03/21 10:57:42;;;;;;;31.10;8.25;;;7.40;70.50;;;;;;5053648;28;20385;-71
2021/03/21 11:00:29;;;;;;;24.15;5.95;;;7.40;71.10;;;;;;5053483;28;20052;-71
2021/03/21 11:03:00;;;;;;;26.90;6.13;;;7.40;71.50;;;;;;5054167;28;20040;-71
2021/03/21 11:05:39;;;;;;;25.02;6.97;;;7.50;71.30;;;;;;5053085;28;20041;-71
2021/03/21 11:08:15;;;;;;;37.90;7.90;;;7.60;71.50;;;;;;5053288;28;20112;-71
2021/03/21 11:10:49;;;;;;;32.03;9.10;;;7.60;70.70;;;;;;5019395;28;20507;-71
2021/03/21 11:13:24;;;;;;;27.65;6.80;;;7.70;70.00;;;;;;5053352;28;20044;-73
2021/03/21 11:15:51;;;;;;;37.17;6.55;;;7.70;69.70;;;;;;5052756;28;20045;-73
2021/03/21 11:18:22;;;;;;;35.15;7.57;;;7.60;69.80;;;;;;5052763;28;20420;-72
2021/03/21 11:20:48;;;;;;;36.40;7.13;;;7.70;70.20;;;;;;5035392;28;20427;-71
2021/03/21 11:23:22;;;;;;;35.80;6.88;;;7.70;71.10;;;;;;5053042;28;20091;-71
2021/03/21 11:25:49;;;;;;;26.67;7.28;;;7.80;71.10;;;;;;5055652;28;20037;-72
2021/03/21 11:28:25;;;;;;;28.80;5.93;;;7.70;69.80;;;;;;5039624;28;20095;-71
2021/03/21 11:30:56;;;;;;;24.10;6.22;;;7.80;69.00;;;;;;5039172;28;20380;-71
2021/03/21 11:33:41;;;;;;;34.33;9.05;;;7.70;68.00;;;;;;5039477;28;20095;-71
2021/03/21 11:36:16;;;;;;;31.92;5.95;;;7.70;69.50;;;;;;5056761;28;20044;-72
2021/03/21 11:38:42;;;;;;;33.17;7.50;;;7.80;69.30;;;;;;5056976;28;20045;-71
2021/03/21 11:41:27;;;;;;;31.38;7.70;;;7.70;69.50;;;;;;5056713;28;20041;-71
2021/03/21 11:44:11;;;;;;;29.17;6.03;;;7.90;69.60;;;;;;5056910;28;20041;-71
2021/03/21 11:46:37;;;;;;;31.98;6.15;;;7.80;67.70;;;;;;5056351;28;20123;-71
2021/03/21 11:49:03;;;;;;;29.90;6.35;;;7.80;68.00;;;;;;5056681;28;20116;-71
2021/03/21 11:51:29;;;;;;;38.45;6.80;;;7.80;68.70;;;;;;5056775;28;20041;-71
2021/03/21 11:53:55;;;;;;;30.45;6.80;;;7.80;67.80;;;;;;5056518;28;20033;-71
2021/03/21 11:56:46;;;;;;;36.35;5.78;;;7.80;68.90;;;;;;5056351;28;20120;-71
2021/03/21 11:59:16;;;;;;;41.10;7.75;;;7.90;69.70;;;;;;5038814;28;20469;-71
2021/03/21 12:01:49;;;;;;;37.30;6.93;;;7.80;70.10;;;;;;5057082;28;20045;-71
2021/03/21 12:04:33;;;;;;;35.60;6.65;;;7.70;69.00;;;;;;5056661;28;20036;-71
2021/03/21 12:07:00;;;;;;;39.53;5.85;;;7.80;69.70;;;;;;5056529;28;20075;-71
2021/03/21 12:09:35;;;;;;;27.30;6.55;;;7.90;69.40;;;;;;5056439;28;20537;-71
2021/03/21 12:12:05;;;;;;;27.83;6.25;;;8.00;70.00;;;;;;5056367;28;20465;-72
2021/03/21 12:14:45;;;;;;;36.38;6.50;;;7.90;68.40;;;;;;5056229;28;20075;-72
2021/03/21 12:17:23;;;;;;;31.73;7.30;;;7.90;69.30;;;;;;5055839;28;20032;-73
2021/03/21 12:19:53;;;;;;;24.35;6.78;;;7.80;67.00;;;;;;5056171;28;20060;-72
2021/03/21 12:22:40;;;;;;;25.77;6.43;;;7.70;68.20;;;;;;5056432;28;20037;-72
2021/03/21 12:25:23;;;;;;;29.40;5.88;;;7.70;68.50;;;;;;5038142;28;20033;-72
2021/03/21 12:27:53;;;;;;;35.65;6.63;;;7.70;68.00;;;;;;5056321;28;20037;-72
2021/03/21 12:30:34;;;;;;;30.60;7.45;;;7.70;68.80;;;;;;5056100;28;20480;-72
2021/03/21 12:33:25;;;;;;;27.42;6.43;;;7.90;67.90;;;;;;5056154;28;20036;-71
2021/03/21 12:36:07;;;;;;;28.83;7.07;;;7.90;68.50;;;;;;5055416;28;20044;-72
2021/03/21 12:38:48;;;;;;;25.65;6.03;;;7.90;67.90;;;;;;5056456;28;20037;-71
2021/03/21 12:41:44;;;;;;;27.58;6.60;;;7.90;68.80;;;;;;5056012;28;20484;-71
2021/03/21 12:44:14;;;;;;;36.10;6.00;;;8.00;69.30;;;;;;5055852;28;20072;-72
2021/03/21 12:46:47;;;;;;;31.23;6.10;;;8.00;68.60;;;;;;5055462;28;20048;-72
2021/03/21 12:49:40;;;;;;;37.83;7.05;;;8.00;68.30;;;;;;5055833;28;20135;-72
2021/03/21 12:52:16;;;;;;;27.27;6.55;;;7.90;68.50;;;;;;5037960;28;20041;-73
2021/03/21 12:54:44;;;;;;;21.70;6.85;;;7.80;68.70;;;;;;5055779;28;20727;-72
2021/03/21 12:57:13;;;;;;;22.90;5.03;;;7.90;69.20;;;;;;5056028;28;20109;-72
2021/03/21 12:59:51;;;;;;;26.02;6.60;;;7.80;67.20;;;;;;5055382;28;20040;-72
2021/03/21 13:02:21;;;;;;;32.40;5.85;;;7.70;68.60;;;;;;5055606;28;20124;-72
2021/03/21 13:04:46;;;;;;;24.63;5.28;;;7.70;66.80;;;;;;5055080;28;20041;-72
2021/03/21 13:07:12;;;;;;;33.38;7.38;;;7.60;67.10;;;;;;5055198;28;20108;-72
2021/03/21 13:09:40;;;;;;;29.17;6.30;;;7.70;68.40;;;;;;5055581;28;20037;-72
2021/03/21 13:12:06;;;;;;;32.05;6.55;;;7.70;68.60;;;;;;5055307;28;20443;-72
2021/03/21 13:14:32;;;;;;;27.60;6.65;;;7.90;69.70;;;;;;5054874;28;20044;-73
2021/03/21 13:16:57;;;;;;;26.60;6.47;;;7.70;70.00;;;;;;5055579;28;20053;-72
2021/03/21 13:19:23;;;;;;;27.67;5.88;;;7.90;70.40;;;;;;5055089;28;20039;-72
2021/03/21 13:21:49;;;;;;;30.13;6.28;;;7.90;70.10;;;;;;5055570;28;20037;-72
2021/03/21 13:24:15;;;;;;;33.35;6.30;;;7.90;69.80;;;;;;5055070;28;20037;-72
2021/03/21 13:26:41;;;;;;;34.03;5.95;;;7.80;70.00;;;;;;5054657;28;20405;-72
2021/03/21 13:29:07;;;;;;;34.28;6.25;;;7.70;70.60;;;;;;5055182;28;20036;-72
2021/03/21 13:31:32;;;;;;;24.35;7.72;;;7.70;71.40;;;;;;5054912;28;20084;-72
2021/03/21 13:33:59;;;;;;;38.92;6.43;;;7.70;71.00;;;;;;5055158;28;20136;-73
2021/03/21 13:36:25;;;;;;;30.50;6.30;;;7.70;71.00;;;;;;5054545;28;20473;-72
2021/03/21 13:38:52;;;;;;;30.65;7.10;;;7.70;69.70;;;;;;5054794;28;20033;-72